createdAt,value
2022-10-20T00:01:06.195Z,15.31
2022-10-20T00:03:32.916Z,15.26
2022-10-20T00:06:19.324Z,14.95
2022-10-20T00:08:46.772Z,14.88
2022-10-20T00:11:15.914Z,14.71
2022-10-20T00:13:43.888Z,14.63
2022-10-20T00:16:10.652Z,14.53
2022-10-20T00:18:37.399Z,14.76
2022-10-20T00:21:08.640Z,14.68
2022-10-20T00:23:35.830Z,14.75
2022-10-20T00:26:07.156Z,14.64
2022-10-20T00:28:34.172Z,14.51
2022-10-20T00:31:01.593Z,14.49
2022-10-20T00:33:28.186Z,14.64
2022-10-20T00:35:54.658Z,14.92
2022-10-20T00:38:21.242Z,15.07
2022-10-20T00:40:47.716Z,15.17
2022-10-20T00:43:17.549Z,15.21
2022-10-20T00:45:50.282Z,15.16
2022-10-20T00:48:19.434Z,15.36
2022-10-20T00:50:49.553Z,15.39
2022-10-20T00:53:18.626Z,15.43
2022-10-20T00:55:48.050Z,15.61
2022-10-20T00:58:14.669Z,15.71
2022-10-20T01:00:42.968Z,15.61
2022-10-20T01:03:17.801Z,15.53
2022-10-20T01:05:44.283Z,15.55
2022-10-20T01:08:10.762Z,15.47
2022-10-20T01:10:44.677Z,15.41
2022-10-20T01:13:21.870Z,15.54
2022-10-20T01:16:01.430Z,15.54
2022-10-20T01:18:41.040Z,15.61
2022-10-20T01:21:21.624Z,15.44
2022-10-20T01:24:14.840Z,15.26
2022-10-20T01:27:13.965Z,15.15
2022-10-20T01:30:03.856Z,15.32
2022-10-20T01:32:49.078Z,15.25
2022-10-20T01:35:35.741Z,15.21
2022-10-20T01:38:08.644Z,15.25
2022-10-20T01:41:15.336Z,15.29
2022-10-20T01:43:43.672Z,15.01
2022-10-20T01:46:10.989Z,14.90
2022-10-20T01:48:38.344Z,14.90
2022-10-20T01:51:04.948Z,14.99
2022-10-20T01:53:32.145Z,15.08
2022-10-20T01:55:59.822Z,14.98
2022-10-20T01:58:29.376Z,15.00
2022-10-20T02:01:20.490Z,15.22
2022-10-20T02:03:53.364Z,15.41
2022-10-20T02:06:50.544Z,15.35
2022-10-20T02:09:20.291Z,15.35
2022-10-20T02:11:53.024Z,15.22
2022-10-20T02:14:20.579Z,15.25
2022-10-20T02:16:53.173Z,15.18
2022-10-20T02:19:22.400Z,15.12
2022-10-20T02:21:50.953Z,15.17
2022-10-20T02:24:17.693Z,15.23
2022-10-20T02:26:45.405Z,15.24
2022-10-20T02:29:16.419Z,15.18
2022-10-20T02:31:44.398Z,15.18
2022-10-20T02:34:11.559Z,15.14
2022-10-20T02:36:40.138Z,15.27
2022-10-20T02:39:07.239Z,15.50
2022-10-20T02:41:33.858Z,15.68
2022-10-20T02:44:00.365Z,15.67
2022-10-20T02:46:26.823Z,15.82
2022-10-20T02:48:53.543Z,15.74
2022-10-20T02:51:20.089Z,15.69
2022-10-20T02:53:46.856Z,15.76
2022-10-20T02:56:13.320Z,15.78
2022-10-20T02:58:39.771Z,15.90
2022-10-20T03:01:06.267Z,15.95
2022-10-20T03:03:32.708Z,15.92
2022-10-20T03:06:07.162Z,15.77
2022-10-20T03:08:36.982Z,15.77
2022-10-20T03:11:03.896Z,15.81
2022-10-20T03:13:30.634Z,15.72
2022-10-20T03:15:57.150Z,15.63
2022-10-20T03:18:23.852Z,15.80
2022-10-20T03:20:53.726Z,16.04
2022-10-20T03:23:20.598Z,16.03
2022-10-20T03:25:47.764Z,16.12
2022-10-20T03:28:14.356Z,16.24
2022-10-20T03:30:41.311Z,16.17
2022-10-20T03:33:07.947Z,16.26
2022-10-20T03:35:34.886Z,16.33
2022-10-20T03:38:01.477Z,16.38
2022-10-20T03:40:28.736Z,16.28
2022-10-20T03:42:55.326Z,16.25
2022-10-20T03:45:21.907Z,16.15
2022-10-20T03:47:48.992Z,16.27
2022-10-20T03:50:15.480Z,16.38
2022-10-20T03:52:41.921Z,16.42
2022-10-20T03:55:08.999Z,16.42
2022-10-20T03:57:35.705Z,16.48
2022-10-20T04:00:07.005Z,16.35
2022-10-20T04:02:36.360Z,16.33
2022-10-20T04:05:04.203Z,16.42
2022-10-20T04:07:30.816Z,16.42
2022-10-20T04:09:57.583Z,16.37
2022-10-20T04:12:26.421Z,16.44
2022-10-20T04:15:00.627Z,16.53
2022-10-20T04:17:27.198Z,16.49
2022-10-20T04:19:53.676Z,16.48
2022-10-20T04:22:20.202Z,16.46
2022-10-20T04:24:47.939Z,16.40
2022-10-20T04:27:14.395Z,16.52
2022-10-20T04:29:40.990Z,16.55
2022-10-20T04:32:07.427Z,16.52
2022-10-20T04:34:34.065Z,16.53
2022-10-20T04:37:00.762Z,16.52
2022-10-20T04:39:27.660Z,16.51
2022-10-20T04:41:56.762Z,16.48
2022-10-20T04:44:23.323Z,16.43
2022-10-20T04:46:50.401Z,16.51
2022-10-20T04:49:16.986Z,16.30
2022-10-20T04:51:46.673Z,16.26
2022-10-20T04:54:13.259Z,16.28
2022-10-20T04:56:40.100Z,16.30
2022-10-20T04:59:09.594Z,16.40
2022-10-20T05:01:39.262Z,16.37
2022-10-20T05:04:05.801Z,16.44
2022-10-20T05:06:33.716Z,16.49
2022-10-20T05:09:03.049Z,16.52
2022-10-20T05:11:30.938Z,16.49
2022-10-20T05:13:57.492Z,16.36
2022-10-20T05:16:24.439Z,16.38
2022-10-20T05:18:50.967Z,16.43
2022-10-20T05:21:19.971Z,16.26
2022-10-20T05:23:46.731Z,16.03
2022-10-20T05:26:17.099Z,15.85
2022-10-20T05:28:46.331Z,15.69
2022-10-20T05:31:13.236Z,15.57
2022-10-20T05:33:43.324Z,15.54
2022-10-20T05:36:10.116Z,15.54
2022-10-20T05:38:37.296Z,15.65
2022-10-20T05:41:12.090Z,15.58
2022-10-20T05:43:38.911Z,15.65
2022-10-20T05:46:06.383Z,15.65
2022-10-20T05:48:33.526Z,15.77
2022-10-20T05:51:18.863Z,15.81
2022-10-20T05:53:46.099Z,15.99
2022-10-20T05:56:15.052Z,16.07
2022-10-20T05:58:42.237Z,16.17
2022-10-20T06:01:13.278Z,16.26
2022-10-20T06:03:40.109Z,16.23
2022-10-20T06:06:06.641Z,16.23
2022-10-20T06:08:33.437Z,16.25
2022-10-20T06:11:05.332Z,16.12
2022-10-20T06:13:32.350Z,15.95
2022-10-20T06:16:06.990Z,15.76
2022-10-20T06:18:34.217Z,15.78
2022-10-20T06:21:05.854Z,15.82
2022-10-20T06:23:32.343Z,15.90
2022-10-20T06:26:10.952Z,15.89
2022-10-20T06:28:38.998Z,15.87
2022-10-20T06:31:40.885Z,15.96
2022-10-20T06:34:09.720Z,16.10
2022-10-20T06:36:37.423Z,16.13
2022-10-20T06:39:05.507Z,16.18
2022-10-20T06:41:34.975Z,16.24
2022-10-20T06:44:01.688Z,16.04
2022-10-20T06:46:30.125Z,16.06
2022-10-20T06:48:58.811Z,16.18
2022-10-20T06:51:25.872Z,16.32
2022-10-20T06:53:52.756Z,16.35
2022-10-20T06:56:27.750Z,16.42
2022-10-20T06:58:55.535Z,16.44
2022-10-20T07:01:24.697Z,16.43
2022-10-20T07:03:53.475Z,16.65
2022-10-20T07:06:24.846Z,16.73
2022-10-20T07:08:52.715Z,16.74
2022-10-20T07:11:21.338Z,16.89
2022-10-20T07:13:50.775Z,17.05
2022-10-20T07:16:19.588Z,16.98
2022-10-20T07:18:46.633Z,16.84
2022-10-20T07:21:15.604Z,16.97
2022-10-20T07:23:42.347Z,17.04
2022-10-20T07:26:17.506Z,17.05
2022-10-20T07:28:46.512Z,16.99
2022-10-20T07:31:18.541Z,16.96
2022-10-20T07:33:56.182Z,16.70
2022-10-20T07:36:34.871Z,17.04
2022-10-20T07:39:05.022Z,17.18
2022-10-20T07:41:31.570Z,17.25
2022-10-20T07:43:58.291Z,17.34
2022-10-20T07:46:25.765Z,17.18
2022-10-20T07:48:52.382Z,17.15
2022-10-20T07:51:21.656Z,17.16
2022-10-20T07:53:49.058Z,17.21
2022-10-20T07:56:15.716Z,17.21
2022-10-20T07:58:42.616Z,17.23
2022-10-20T08:01:10.447Z,17.26
2022-10-20T08:03:38.528Z,17.29
2022-10-20T08:06:06.167Z,17.35
2022-10-20T08:08:34.205Z,17.40
2022-10-20T08:11:01.435Z,17.52
2022-10-20T08:13:28.753Z,17.39
2022-10-20T08:15:57.430Z,17.60
2022-10-20T08:18:25.501Z,17.66
2022-10-20T08:20:54.551Z,17.46
2022-10-20T08:23:21.011Z,17.53
2022-10-20T08:25:47.490Z,17.56
2022-10-20T08:28:13.939Z,17.73
2022-10-20T08:30:40.425Z,17.87
2022-10-20T08:33:06.989Z,17.90
2022-10-20T08:35:34.051Z,17.94
2022-10-20T08:38:06.081Z,17.75
2022-10-20T08:40:34.675Z,17.49
2022-10-20T08:43:01.209Z,17.59
2022-10-20T08:45:28.190Z,17.65
2022-10-20T08:47:56.622Z,17.74
2022-10-20T08:50:24.514Z,17.71
2022-10-20T08:52:53.849Z,18.01
2022-10-20T08:55:31.638Z,18.32
2022-10-20T08:58:06.590Z,18.45
2022-10-20T09:00:36.380Z,18.50
2022-10-20T09:03:13.757Z,18.54
2022-10-20T09:05:42.096Z,18.29
2022-10-20T09:08:08.837Z,18.30
2022-10-20T09:10:38.556Z,18.25
2022-10-20T09:13:25.939Z,18.41
2022-10-20T09:16:04.873Z,18.26
2022-10-20T09:18:32.727Z,18.10
2022-10-20T09:21:05.749Z,18.09
2022-10-20T09:23:41.921Z,18.25
2022-10-20T09:26:37.424Z,18.01
2022-10-20T09:29:16.315Z,17.69
2022-10-20T09:31:54.417Z,17.67
2022-10-20T09:34:31.848Z,17.74
2022-10-20T09:37:03.743Z,17.96
2022-10-20T09:39:38.274Z,18.36
2022-10-20T09:42:11.496Z,18.68
2022-10-20T09:44:56.982Z,19.22
2022-10-20T09:47:24.558Z,19.51
2022-10-20T09:50:01.069Z,19.80
2022-10-20T09:52:30.606Z,19.97
2022-10-20T09:55:26.315Z,20.29
2022-10-20T09:57:54.287Z,20.58
2022-10-20T10:00:37.326Z,20.49
2022-10-20T10:03:08.556Z,20.46
2022-10-20T10:05:35.439Z,20.01
2022-10-20T10:08:02.228Z,20.00
2022-10-20T10:10:30.664Z,19.87
2022-10-20T10:13:00.620Z,20.20
2022-10-20T10:15:34.651Z,20.21
2022-10-20T10:18:12.170Z,20.25
2022-10-20T10:20:39.648Z,20.37
2022-10-20T10:23:29.807Z,20.19
2022-10-20T10:26:00.576Z,20.26
2022-10-20T10:28:32.846Z,20.32
2022-10-20T10:31:10.007Z,20.27
2022-10-20T10:33:36.657Z,20.55
2022-10-20T10:36:06.904Z,20.50
2022-10-20T10:38:34.336Z,20.58
2022-10-20T10:41:06.101Z,20.85
2022-10-20T10:43:37.494Z,20.68
2022-10-20T10:46:25.094Z,20.87
2022-10-20T10:48:58.008Z,20.65
2022-10-20T10:51:30.588Z,20.66
2022-10-20T10:54:11.696Z,20.37
2022-10-20T10:56:41.717Z,20.49
2022-10-20T10:59:25.793Z,20.52
2022-10-20T11:01:58.302Z,20.37
2022-10-20T11:04:49.064Z,20.43
2022-10-20T11:07:38.841Z,20.47
2022-10-20T11:10:42.715Z,20.84
2022-10-20T11:13:42.961Z,20.65
2022-10-20T11:16:34.333Z,20.68
2022-10-20T11:19:18.853Z,20.67
2022-10-20T11:22:00.524Z,20.93
2022-10-20T11:24:43.096Z,21.12
2022-10-20T11:27:19.721Z,21.01
2022-10-20T11:29:52.188Z,21.29
2022-10-20T11:32:27.153Z,21.55
2022-10-20T11:35:25.287Z,21.82
2022-10-20T11:38:12.733Z,21.90
2022-10-20T11:40:45.037Z,22.16
2022-10-20T11:43:25.956Z,22.22
2022-10-20T11:46:12.666Z,21.88
2022-10-20T11:48:47.405Z,21.77
2022-10-20T11:51:32.510Z,21.70
2022-10-20T11:54:23.888Z,21.77
2022-10-20T11:56:55.703Z,21.82
2022-10-20T11:59:46.911Z,21.54
2022-10-20T12:02:49.377Z,21.39
2022-10-20T12:05:30.985Z,21.40
2022-10-20T12:08:29.846Z,21.38
2022-10-20T12:11:34.521Z,20.98
2022-10-20T12:14:16.357Z,20.84
2022-10-20T12:16:52.218Z,20.84
2022-10-20T12:19:30.221Z,20.89
2022-10-20T12:22:26.570Z,20.66
2022-10-20T12:24:52.929Z,20.92
2022-10-20T12:27:21.687Z,20.94
2022-10-20T12:30:29.340Z,21.29
2022-10-20T12:32:58.420Z,21.38
2022-10-20T12:35:24.936Z,21.80
2022-10-20T12:37:59.390Z,22.14
2022-10-20T12:40:26.767Z,22.30
2022-10-20T12:42:54.912Z,22.01
2022-10-20T12:45:37.607Z,22.33
2022-10-20T12:48:06.454Z,22.48
2022-10-20T12:50:40.171Z,21.65
2022-10-20T12:53:13.308Z,21.35
2022-10-20T12:55:42.046Z,21.06
2022-10-20T12:58:11.903Z,21.11
2022-10-20T13:00:38.374Z,21.18
2022-10-20T13:03:33.648Z,21.43
2022-10-20T13:06:01.046Z,21.41
2022-10-20T13:08:33.688Z,21.29
2022-10-20T13:11:38.897Z,21.09
2022-10-20T13:14:17.919Z,20.62
2022-10-20T13:17:09.232Z,20.47
2022-10-20T13:19:43.398Z,20.24
2022-10-20T13:22:37.595Z,19.68
2022-10-20T13:25:06.898Z,19.41
2022-10-20T13:27:33.532Z,19.57
2022-10-20T13:30:00.181Z,19.68
2022-10-20T13:33:38.403Z,19.83
2022-10-20T13:36:05.430Z,20.01
2022-10-20T13:38:37.397Z,20.13
2022-10-20T13:41:27.991Z,20.47
2022-10-20T13:44:32.021Z,20.69
2022-10-20T13:47:19.133Z,20.77
2022-10-20T13:49:59.630Z,20.89
2022-10-20T13:52:28.682Z,21.00
2022-10-20T13:54:55.640Z,21.01
2022-10-20T14:00:29.988Z,21.03
2022-10-20T14:03:04.578Z,20.91
2022-10-20T14:05:37.599Z,21.13
2022-10-20T14:08:08.832Z,20.72
2022-10-20T14:10:40.027Z,20.51
2022-10-20T14:13:14.661Z,20.87
2022-10-20T14:15:49.002Z,21.01
2022-10-20T14:18:29.685Z,21.26
2022-10-20T14:21:01.626Z,21.52
2022-10-20T14:23:37.136Z,21.53
2022-10-20T14:26:05.128Z,21.53
2022-10-20T14:28:33.375Z,21.12
2022-10-20T14:31:00.311Z,20.91
2022-10-20T14:33:29.043Z,20.38
2022-10-20T14:35:58.289Z,20.28
2022-10-20T14:38:30.474Z,20.50
2022-10-20T14:40:58.071Z,20.67
2022-10-20T14:43:35.424Z,20.54
2022-10-20T14:46:03.443Z,20.71
2022-10-20T14:48:38.727Z,20.73
2022-10-20T14:51:26.966Z,20.71
2022-10-20T14:54:15.871Z,20.46
2022-10-20T14:56:45.480Z,20.38
2022-10-20T14:59:18.360Z,20.45
2022-10-20T15:02:17.549Z,20.29
2022-10-20T15:04:45.512Z,20.28
2022-10-20T15:07:19.561Z,20.37
2022-10-20T15:09:52.006Z,20.41
2022-10-20T15:12:33.324Z,20.31
2022-10-20T15:15:06.204Z,19.98
2022-10-20T15:17:45.742Z,19.84
2022-10-20T15:20:31.042Z,19.58
2022-10-20T15:22:59.503Z,19.08
2022-10-20T15:25:27.667Z,19.05
2022-10-20T15:27:55.824Z,19.27
2022-10-20T15:30:23.952Z,19.28
2022-10-20T15:32:50.821Z,19.23
2022-10-20T15:35:19.266Z,19.40
2022-10-20T15:37:53.014Z,19.29
2022-10-20T15:40:24.056Z,19.37
2022-10-20T15:42:50.513Z,19.46
2022-10-20T15:45:20.147Z,19.39
2022-10-20T15:47:47.118Z,19.33
2022-10-20T15:50:13.790Z,18.98
2022-10-20T15:52:40.375Z,19.12
2022-10-20T15:55:24.193Z,19.32
2022-10-20T15:57:51.820Z,18.78
2022-10-20T16:00:20.159Z,18.47
2022-10-20T16:02:46.875Z,18.38
2022-10-20T16:05:13.521Z,18.31
2022-10-20T16:07:40.139Z,18.34
2022-10-20T16:10:08.160Z,18.45
2022-10-20T16:12:35.414Z,18.48
2022-10-20T16:15:02.487Z,18.44
2022-10-20T16:17:28.950Z,18.50
2022-10-20T16:19:59.157Z,18.36
2022-10-20T16:22:25.784Z,18.26
2022-10-20T16:24:52.568Z,18.26
2022-10-20T16:27:19.038Z,18.29
2022-10-20T16:29:47.642Z,18.19
2022-10-20T16:32:16.271Z,17.68
2022-10-20T16:34:42.741Z,17.67
2022-10-20T16:37:09.777Z,17.69
2022-10-20T16:39:36.218Z,17.71
2022-10-20T16:42:02.684Z,18.00
2022-10-20T16:44:29.141Z,18.17
2022-10-20T16:46:55.569Z,18.30
2022-10-20T16:49:23.100Z,18.26
2022-10-20T16:51:50.799Z,18.16
2022-10-20T16:54:17.503Z,18.10
2022-10-20T16:56:43.980Z,18.03
2022-10-20T16:59:10.457Z,18.15
2022-10-20T17:01:37.161Z,18.13
2022-10-20T17:04:03.893Z,18.16
2022-10-20T17:06:30.348Z,18.22
2022-10-20T17:08:59.150Z,18.10
2022-10-20T17:11:28.386Z,18.16
2022-10-20T17:13:55.328Z,18.23
2022-10-20T17:16:33.040Z,18.04
2022-10-20T17:19:00.946Z,18.11
2022-10-20T17:21:28.737Z,17.91
2022-10-20T17:24:05.604Z,17.74
2022-10-20T17:26:32.322Z,17.60
2022-10-20T17:29:00.523Z,17.43
2022-10-20T17:31:27.710Z,17.24
2022-10-20T17:33:54.235Z,17.16
2022-10-20T17:36:20.951Z,17.13
2022-10-20T17:38:47.431Z,17.34
2022-10-20T17:41:15.243Z,17.41
2022-10-20T17:43:41.918Z,17.61
2022-10-20T17:47:00.528Z,17.47
2022-10-20T17:49:30.141Z,17.21
2022-10-20T17:51:56.622Z,16.95
2022-10-20T17:54:24.262Z,17.03
2022-10-20T17:56:50.801Z,17.02
2022-10-20T17:59:17.472Z,16.71
2022-10-20T18:01:46.614Z,16.76
2022-10-20T18:04:14.495Z,16.67
2022-10-20T18:06:42.064Z,16.69
2022-10-20T18:09:11.316Z,16.78
2022-10-20T18:11:39.518Z,16.61
2022-10-20T18:14:06.304Z,16.42
2022-10-20T18:16:34.424Z,16.61
2022-10-20T18:19:01.218Z,16.41
2022-10-20T18:21:28.950Z,16.29
2022-10-20T18:24:04.176Z,16.41
2022-10-20T18:26:32.321Z,16.37
2022-10-20T18:29:04.795Z,16.43
2022-10-20T18:31:34.318Z,16.22
2022-10-20T18:34:04.396Z,16.23
2022-10-20T18:36:33.728Z,16.22
2022-10-20T18:39:00.429Z,16.28
2022-10-20T18:41:28.818Z,16.50
2022-10-20T18:44:00.039Z,16.37
2022-10-20T18:46:27.899Z,16.52
2022-10-20T18:48:54.539Z,16.59
2022-10-20T18:51:32.317Z,16.68
2022-10-20T18:54:04.626Z,16.85
2022-10-20T18:56:31.757Z,16.51
2022-10-20T18:59:03.351Z,16.42
2022-10-20T19:01:32.774Z,16.36
2022-10-20T19:04:00.100Z,16.32
2022-10-20T19:06:35.723Z,16.35
2022-10-20T19:09:06.145Z,16.28
2022-10-20T19:11:34.710Z,16.48
2022-10-20T19:14:01.214Z,16.42
2022-10-20T19:16:30.218Z,16.38
2022-10-20T19:18:58.269Z,16.40
2022-10-20T19:21:25.456Z,16.44
2022-10-20T19:24:01.384Z,16.42
2022-10-20T19:26:42.923Z,16.37
2022-10-20T19:29:12.115Z,16.40
2022-10-20T19:31:45.909Z,16.43
2022-10-20T19:34:22.784Z,16.39
2022-10-20T19:36:49.353Z,16.45
2022-10-20T19:41:51.110Z,16.22
2022-10-20T19:44:17.603Z,16.27
2022-10-20T19:46:46.168Z,16.38
2022-10-20T19:49:13.027Z,16.35
2022-10-20T19:51:39.936Z,16.25
2022-10-20T19:54:07.536Z,16.35
2022-10-20T19:56:34.632Z,16.20
2022-10-20T19:59:06.073Z,15.94
2022-10-20T20:01:38.012Z,15.91
2022-10-20T20:04:05.277Z,16.00
2022-10-20T20:06:33.598Z,16.09
2022-10-20T20:09:03.366Z,16.37
2022-10-20T20:11:30.377Z,16.57
2022-10-20T20:13:59.675Z,16.64
2022-10-20T20:16:26.648Z,16.71
2022-10-20T20:18:53.380Z,16.81
2022-10-20T20:21:23.147Z,16.93
2022-10-20T20:24:00.787Z,16.92
2022-10-20T20:26:30.108Z,16.77
2022-10-20T20:28:57.040Z,16.75
2022-10-20T20:31:25.617Z,16.91
2022-10-20T20:33:52.688Z,16.99
2022-10-20T20:36:19.727Z,17.10
2022-10-20T20:38:46.320Z,17.06
2022-10-20T20:41:15.073Z,17.17
2022-10-20T20:43:41.870Z,17.24
2022-10-20T20:46:12.604Z,17.32
2022-10-20T20:48:39.207Z,17.31
2022-10-20T20:51:06.282Z,17.35
2022-10-20T20:53:35.370Z,17.36
2022-10-20T20:56:21.919Z,17.43
2022-10-20T20:58:55.033Z,17.50
2022-10-20T21:01:24.530Z,17.41
2022-10-20T21:03:55.362Z,17.43
2022-10-20T21:06:28.827Z,17.42
2022-10-20T21:09:01.181Z,17.30
2022-10-20T21:11:27.757Z,17.25
2022-10-20T21:13:55.510Z,17.19
2022-10-20T21:16:25.924Z,17.15
2022-10-20T21:18:54.915Z,17.13
2022-10-20T21:21:26.608Z,17.05
2022-10-20T21:24:01.897Z,17.03
2022-10-20T21:26:29.414Z,17.09
2022-10-20T21:28:58.567Z,16.97
2022-10-20T21:31:26.585Z,16.97
2022-10-20T21:33:56.964Z,17.01
2022-10-20T21:36:26.231Z,16.92
2022-10-20T21:38:53.087Z,16.93
2022-10-20T21:41:20.369Z,16.88
2022-10-20T21:43:52.078Z,16.85
2022-10-20T21:46:38.792Z,16.76
2022-10-20T21:49:12.008Z,16.79
2022-10-20T21:51:40.992Z,16.59
2022-10-20T21:54:11.278Z,16.23
2022-10-20T21:56:39.544Z,16.26
2022-10-20T21:59:06.859Z,16.48
2022-10-20T22:01:33.825Z,16.64
2022-10-20T22:04:00.479Z,16.68
2022-10-20T22:06:28.240Z,16.82
2022-10-20T22:08:57.441Z,16.80
2022-10-20T22:11:27.480Z,16.87
2022-10-20T22:13:54.009Z,17.03
2022-10-20T22:16:23.443Z,17.13
2022-10-20T22:19:14.135Z,17.01
2022-10-20T22:21:45.145Z,16.79
2022-10-20T22:24:12.096Z,16.70
2022-10-20T22:26:39.102Z,16.68
2022-10-20T22:29:06.415Z,16.71
2022-10-20T22:31:32.947Z,16.75
2022-10-20T22:33:59.919Z,16.75
2022-10-20T22:36:26.801Z,16.71
2022-10-20T22:38:56.286Z,16.67
2022-10-20T22:41:25.533Z,16.78
2022-10-20T22:43:52.100Z,16.98
2022-10-20T22:46:18.714Z,16.75
2022-10-20T22:48:45.237Z,16.82
2022-10-20T22:51:11.994Z,16.82
2022-10-20T22:53:38.625Z,16.94
2022-10-20T22:56:10.555Z,16.93
2022-10-20T22:58:38.325Z,16.84
2022-10-20T23:01:14.079Z,16.99
2022-10-20T23:03:41.136Z,17.05
2022-10-20T23:06:13.130Z,17.06
2022-10-20T23:08:45.268Z,17.19
2022-10-20T23:11:12.329Z,17.33
2022-10-20T23:13:38.820Z,17.35
2022-10-20T23:16:05.754Z,17.20
2022-10-20T23:18:32.287Z,16.98
2022-10-20T23:20:59.190Z,16.91
2022-10-20T23:23:25.973Z,16.72
2022-10-20T23:25:52.810Z,16.82
2022-10-20T23:28:19.446Z,16.92
2022-10-20T23:30:47.271Z,16.98
2022-10-20T23:33:13.745Z,17.08
2022-10-20T23:35:40.368Z,16.75
2022-10-20T23:38:08.359Z,16.82
2022-10-20T23:40:35.282Z,17.08
2022-10-20T23:43:01.760Z,17.15
2022-10-20T23:45:28.304Z,17.05
2022-10-20T23:47:55.080Z,16.95
2022-10-20T23:50:21.730Z,17.11
2022-10-20T23:52:48.195Z,17.28
2022-10-20T23:55:15.682Z,17.29
2022-10-20T23:57:42.363Z,17.16
